Hampton Beach, New Hampshire
Current Conditions -  °F | °C
As of 9:13 AM on Friday 24 Oct 2014 (Local Time) from KPSM Reporting Station
Light Rain Light Rain  
Wind Chill: 50°   Ceiling: 500
Heat Index: 50°   Visibility: 2mi
Dew Point: 48°   Wind: 10mph
Humidity: 94%   Direction: 340°NNW
Pressure: 29.7"   Gusts: NA
Location:  42.9284°N, 70.8566°W
Report Text: KPSM 241313Z 34009KT 320V050 2SM -RA OVC005 10/09 A2970 RMK AO2A VIS S-SW 1 1/4
Loading
Personal Weather Stations






























Interactive Weather Map New forecast layout! Learn more

10-Day Weather Forecast

Advertisements
Track Severe Weather on mobile